Flight Track Log - Related Links

Times and Time Zones

All times are in EST time to prevent confusion due to time zone crossing. See the N884FT flight status page for this flight to view local times or setup timezone preferences in your user account.

Time Position Orientation Groundspeed Altitude Reporting Facility
EST Latitude Longitude Course Direction KTS MPH feet Rate Location/Type
Tue 09:57:23 AM 28.0667 -82.2167 85° East 110 127 3,300  Level Tampa TRACON
Tue 09:58:23 AM 28.0500 -82.2000 139° Southeast 86 99 4,200 793 Climbing Tampa TRACON
Tue 09:59:24 AM 28.0500 -82.1667 90° East 89 102 4,900 347 Climbing Tampa TRACON
Tue 10:00:24 AM 28.0333 -82.1333 120° Southeast 131 151 4,900  Level Tampa TRACON
Tue 10:01:00 AM 27.9980 -82.2261 85° East  Level Estimated
Tue 10:01:29 AM 28.0167 -82.0833 111° Southeast 130 150 4,900  Level Tampa TRACON
Tue 10:02:00 AM 28.0010 -82.1843 85° East  Level Estimated
Tue 10:04:00 AM 28.0219 -82.0018 84° East  Level Estimated
Tue 10:11:00 AM 28.0096 -81.7078 84° East  Level FlightAware Approximate
Tue 10:12:00 AM 28.0132 -81.6660 84° East  Level FlightAware Approximate
Tue 10:13:00 AM 28.0169 -81.6243 84° East  Level FlightAware Approximate
Tue 10:14:00 AM 28.0205 -81.5825 84° East  Level FlightAware Approximate
Tue 10:15:00 AM 28.0241 -81.5408 84° East  Level FlightAware Approximate
Tue 10:16:00 AM 28.0277 -81.4990 84° East  Level FlightAware Approximate
Tue 10:17:00 AM 28.0313 -81.4573 84° East  Level FlightAware Approximate
Tue 10:18:00 AM 28.0349 -81.4155 84° East  Level FlightAware Approximate
Tue 10:19:00 AM 28.0384 -81.3738 84° East  Level FlightAware Approximate
Tue 10:20:00 AM 28.0420 -81.3320 84° East  Level FlightAware Approximate
Tue 10:21:00 AM 28.0455 -81.2903 85° East  Level FlightAware Approximate
Tue 10:22:00 AM 28.0490 -81.2485 85° East  Level FlightAware Approximate
Tue 10:23:00 AM 28.0525 -81.2067 85° East  Level FlightAware Approximate
Tue 10:24:00 AM 28.0560 -81.1649 85° East  Level FlightAware Approximate
Tue 10:25:00 AM 28.0595 -81.1232 85° East  Level FlightAware Approximate
Tue 10:26:00 AM 28.0630 -81.0814 85° East  Level FlightAware Approximate
Tue 10:27:00 AM 28.0664 -81.0396 85° East  Level FlightAware Approximate
Tue 10:28:00 AM 28.0699 -80.9978 85° East  Level FlightAware Approximate
Tue 10:29:00 AM 28.0733 -80.9560 85° East  Level FlightAware Approximate
Tue 10:30:00 AM 28.0767 -80.9142 85° East  Level FlightAware Approximate
Tue 10:31:00 AM 28.0802 -80.8725 85° East  Level FlightAware Approximate
Tue 10:32:00 AM 28.0833 -80.8306 90° East  Level FlightAware Approximate
Tue 10:33:00 AM 28.0833 -80.7887 90° East  Level FlightAware Approximate
Tue 10:34:00 AM 28.0833 -80.7467 90° East  Level FlightAware Approximate
Tue 10:35:00 AM 28.0880 -80.7052 79° East  Level FlightAware Approximate
Tue 10:36:00 AM 28.0949 -80.6640 79° East  Level FlightAware Approximate
Tue 10:37:00 AM 28.1028 -80.6453 79° East  Level Estimated
Tue 10:38:00 AM 28.1028 -80.6453 79° East  Level Estimated
Tue 10:39:00 AM 28.1028 -80.6453 79° East  Level Estimated
Tue 10:40:00 AM 28.1028 -80.6453 79° East  Level Estimated
Tue 10:41:00 AM 28.1028 -80.6453 79° East  Level Estimated
Tue 10:41:08 AM 28.1000 -80.7000 79° East 83 96 600  Level Orlando TRACON
Tue 10:42:00 AM 28.1028 -80.6453 79° East  Level Estimated
Tue 10:42:03 AM 28.1000 -80.6833 90° East 75 86 300  Level Orlando TRACON
Tue 10:43:00 AM 28.1028 -80.6453 79° East  Level Estimated
Tue 10:44:00 AM 28.1028 -80.6453 79° East  Level Estimated
Tue 10:45:00 AM 28.1028 -80.6453 79° East  Level Estimated
Tue 10:46:00 AM 28.1028 -80.6453 79° East  Level Estimated

Login

Don't have an account? Register now (free) for customized features, flight alerts, and more!